createdAt,value
2017-11-29T00:00:36.655Z,26.8
2017-11-29T00:01:36.779Z,26.9
2017-11-29T00:02:39.726Z,26.9
2017-11-29T00:03:39.750Z,26.8
2017-11-29T00:04:36.850Z,26.9
2017-11-29T00:05:39.805Z,26.8
2017-11-29T00:06:36.981Z,26.9
2017-11-29T00:07:36.991Z,26.9
2017-11-29T00:08:39.990Z,26.9
2017-11-29T00:09:40.084Z,26.9
2017-11-29T00:10:37.166Z,26.9
2017-11-29T00:11:40.140Z,26.9
2017-11-29T00:12:37.293Z,26.9
2017-11-29T00:13:37.390Z,26.9
2017-11-29T00:14:37.432Z,26.8
2017-11-29T00:15:40.429Z,26.9
2017-11-29T00:16:37.565Z,26.9
2017-11-29T00:17:40.557Z,26.9
2017-11-29T00:18:40.590Z,26.9
2017-11-29T00:19:40.626Z,26.9
2017-11-29T00:20:37.736Z,26.9
2017-11-29T00:21:40.781Z,26.9
2017-11-29T00:22:40.848Z,26.9
2017-11-29T00:23:41.014Z,26.9
2017-11-29T00:24:41.025Z,26.9
2017-11-29T00:25:41.018Z,26.8
2017-11-29T00:26:38.198Z,26.9
2017-11-29T00:27:41.181Z,26.9
2017-11-29T00:28:41.187Z,26.9
2017-11-29T00:29:41.255Z,26.9
2017-11-29T00:30:41.300Z,26.9
2017-11-29T00:31:38.395Z,26.9
2017-11-29T00:32:38.485Z,26.9
2017-11-29T00:33:38.543Z,26.9
2017-11-29T00:34:41.561Z,26.9
2017-11-29T00:35:38.653Z,26.9
2017-11-29T00:36:41.669Z,26.9
2017-11-29T00:37:41.695Z,26.9
2017-11-29T00:38:38.780Z,26.9
2017-11-29T00:39:38.818Z,26.9
2017-11-29T00:40:41.878Z,26.9
2017-11-29T00:41:39.027Z,26.8
2017-11-29T00:42:39.121Z,26.9
2017-11-29T00:43:42.031Z,26.9
2017-11-29T00:44:39.205Z,26.9
2017-11-29T00:45:42.096Z,26.9
2017-11-29T00:46:39.279Z,26.9
2017-11-29T00:47:42.259Z,26.8
2017-11-29T00:48:42.313Z,26.9
2017-11-29T00:49:42.305Z,26.9
2017-11-29T00:50:39.489Z,26.8
2017-11-29T00:51:42.523Z,26.9
2017-11-29T00:52:39.613Z,26.8
2017-11-29T00:53:39.651Z,26.9
2017-11-29T00:54:42.574Z,26.9
2017-11-29T00:55:39.655Z,26.9
2017-11-29T00:56:39.712Z,26.9
2017-11-29T00:57:42.656Z,26.9
2017-11-29T00:58:42.742Z,26.8
2017-11-29T00:59:39.887Z,26.9
2017-11-29T01:00:42.880Z,26.9
2017-11-29T01:01:39.988Z,26.8
2017-11-29T01:02:40.073Z,26.9
2017-11-29T01:03:43.119Z,26.9
2017-11-29T01:04:43.067Z,26.9
2017-11-29T01:05:40.184Z,26.9
2017-11-29T01:06:43.091Z,26.9
2017-11-29T01:07:40.184Z,26.9
2017-11-29T01:08:40.267Z,26.9
2017-11-29T01:09:40.281Z,26.9
2017-11-29T01:10:40.400Z,26.9
2017-11-29T01:11:43.318Z,26.8
2017-11-29T01:12:40.445Z,26.9
2017-11-29T01:13:40.533Z,26.9
2017-11-29T01:14:43.480Z,26.8
2017-11-29T01:15:40.629Z,26.9
2017-11-29T01:16:43.645Z,26.9
2017-11-29T01:17:40.770Z,26.9
2017-11-29T01:18:40.895Z,26.9
2017-11-29T01:19:43.802Z,26.9
2017-11-29T01:20:40.929Z,26.9
2017-11-29T01:21:41.030Z,26.8
2017-11-29T01:22:43.926Z,26.9
2017-11-29T01:23:41.099Z,26.9
2017-11-29T01:24:41.065Z,26.9
2017-11-29T01:25:41.126Z,26.8
2017-11-29T01:26:41.197Z,26.9
2017-11-29T01:27:41.254Z,26.9
2017-11-29T01:28:41.235Z,26.8
2017-11-29T01:29:44.275Z,26.9
2017-11-29T01:30:41.495Z,26.9
2017-11-29T01:31:41.437Z,26.9
2017-11-29T01:32:41.520Z,26.8
2017-11-29T01:33:44.511Z,26.9
2017-11-29T01:34:44.518Z,26.9
2017-11-29T01:35:41.578Z,26.8
2017-11-29T01:36:44.523Z,26.9
2017-11-29T01:37:44.588Z,26.9
2017-11-29T01:38:41.760Z,26.9
2017-11-29T01:39:41.830Z,26.9
2017-11-29T01:40:41.898Z,26.9
2017-11-29T01:41:44.931Z,26.9
2017-11-29T01:42:42.115Z,26.9
2017-11-29T01:43:42.185Z,26.9
2017-11-29T01:44:42.274Z,26.9
2017-11-29T01:45:45.111Z,26.9
2017-11-29T01:46:42.233Z,26.9
2017-11-29T01:47:45.186Z,26.9
2017-11-29T01:48:45.270Z,26.9
2017-11-29T01:49:45.284Z,26.9
2017-11-29T01:50:42.425Z,26.9
2017-11-29T01:51:45.329Z,26.9
2017-11-29T01:52:42.462Z,26.8
2017-11-29T01:53:45.442Z,26.9
2017-11-29T01:54:45.500Z,26.9
2017-11-29T01:55:45.563Z,26.9
2017-11-29T01:56:45.649Z,26.9
2017-11-29T01:57:45.654Z,26.9
2017-11-29T01:58:42.816Z,26.9
2017-11-29T01:59:45.840Z,26.8
2017-11-29T02:00:47.541Z,26.9
2017-11-29T02:01:45.936Z,26.9
2017-11-29T02:02:43.070Z,26.9
2017-11-29T02:03:43.153Z,26.8
2017-11-29T02:04:46.175Z,26.9
2017-11-29T02:05:43.297Z,26.8
2017-11-29T02:06:46.341Z,26.8
2017-11-29T02:07:46.404Z,26.8
2017-11-29T02:08:46.449Z,26.8
2017-11-29T02:09:46.513Z,26.8
2017-11-29T02:10:46.578Z,26.8
2017-11-29T02:11:43.687Z,26.8
2017-11-29T02:12:43.705Z,26.8
2017-11-29T02:13:46.714Z,26.8
2017-11-29T02:14:43.801Z,26.8
2017-11-29T02:15:43.858Z,26.8
2017-11-29T02:16:43.906Z,26.8
2017-11-29T02:17:46.949Z,26.8
2017-11-29T02:18:44.109Z,26.8
2017-11-29T02:19:44.178Z,26.9
2017-11-29T02:20:44.171Z,26.9
2017-11-29T02:21:44.257Z,26.9
2017-11-29T02:22:44.260Z,26.8
2017-11-29T02:23:47.226Z,26.9
2017-11-29T02:24:47.282Z,26.9
2017-11-29T02:25:47.280Z,26.9
2017-11-29T02:26:47.297Z,26.9
2017-11-29T02:27:44.452Z,26.8
2017-11-29T02:28:44.466Z,26.9
2017-11-29T02:29:44.465Z,26.9
2017-11-29T02:30:44.575Z,26.9
2017-11-29T02:31:47.452Z,26.9
2017-11-29T02:32:47.598Z,26.8
2017-11-29T02:33:47.649Z,26.9
2017-11-29T02:34:44.745Z,26.9
2017-11-29T02:35:44.810Z,26.9
2017-11-29T02:36:47.791Z,26.8
2017-11-29T02:37:47.842Z,26.9
2017-11-29T02:38:47.841Z,26.9
2017-11-29T02:39:44.991Z,26.9
2017-11-29T02:40:45.032Z,26.9
2017-11-29T02:41:45.123Z,26.8
2017-11-29T02:42:48.082Z,26.9
2017-11-29T02:43:48.374Z,26.9
2017-11-29T02:44:48.085Z,26.9
2017-11-29T02:45:48.118Z,26.9
2017-11-29T02:46:48.143Z,26.9
2017-11-29T02:47:45.352Z,26.8
2017-11-29T02:48:48.302Z,26.9
2017-11-29T02:49:48.367Z,26.9
2017-11-29T02:50:48.395Z,26.9
2017-11-29T02:51:45.500Z,26.9
2017-11-29T02:52:45.606Z,26.9
2017-11-29T02:53:48.543Z,26.9
2017-11-29T02:54:45.632Z,26.9
2017-11-29T02:55:48.572Z,26.9
2017-11-29T02:56:45.693Z,26.9
2017-11-29T02:57:45.730Z,26.9
2017-11-29T02:58:48.747Z,26.9
2017-11-29T02:59:48.797Z,26.9
2017-11-29T03:00:48.867Z,26.9
2017-11-29T03:01:48.907Z,26.9
2017-11-29T03:02:48.957Z,26.9
2017-11-29T03:03:48.969Z,26.9
2017-11-29T03:04:49.029Z,26.9
2017-11-29T03:05:49.141Z,26.9
2017-11-29T03:06:46.264Z,26.9
2017-11-29T03:07:49.211Z,26.9
2017-11-29T03:08:46.378Z,26.9
2017-11-29T03:09:46.450Z,26.9
2017-11-29T03:10:46.498Z,26.9
2017-11-29T03:11:49.460Z,26.9
2017-11-29T03:12:49.485Z,26.9
2017-11-29T03:13:49.528Z,26.9
2017-11-29T03:14:49.688Z,26.9
2017-11-29T03:15:46.751Z,26.9
2017-11-29T03:16:46.735Z,26.9
2017-11-29T03:17:49.752Z,26.9
2017-11-29T03:18:49.753Z,26.8
2017-11-29T03:19:46.861Z,26.9
2017-11-29T03:20:49.828Z,26.9
2017-11-29T03:21:49.845Z,26.9
2017-11-29T03:22:49.899Z,26.8
2017-11-29T03:23:47.024Z,26.9
2017-11-29T03:24:49.971Z,26.9
2017-11-29T03:25:50.079Z,26.9
2017-11-29T03:26:47.239Z,26.8
2017-11-29T03:27:47.255Z,26.9
2017-11-29T03:28:47.346Z,26.9
2017-11-29T03:29:50.361Z,26.8
2017-11-29T03:30:47.483Z,26.9
2017-11-29T03:31:47.551Z,26.9
2017-11-29T03:32:50.561Z,26.9
2017-11-29T03:33:47.666Z,26.9
2017-11-29T03:34:47.736Z,26.8
2017-11-29T03:35:47.766Z,26.8
2017-11-29T03:36:47.833Z,26.8
2017-11-29T03:37:47.893Z,26.8
2017-11-29T03:38:50.888Z,26.8
2017-11-29T03:39:50.917Z,26.9
2017-11-29T03:40:48.061Z,26.9
2017-11-29T03:41:51.041Z,26.9
2017-11-29T03:42:48.125Z,26.9
2017-11-29T03:43:51.103Z,26.9
2017-11-29T03:44:51.197Z,26.9
2017-11-29T03:45:48.371Z,26.9
2017-11-29T03:46:48.361Z,26.9
2017-11-29T03:47:51.332Z,26.8
2017-11-29T03:48:51.395Z,26.9
2017-11-29T03:49:51.486Z,26.9
2017-11-29T03:50:48.614Z,26.9
2017-11-29T03:51:51.645Z,26.9
2017-11-29T03:52:51.660Z,26.9
2017-11-29T03:53:48.761Z,26.9
2017-11-29T03:54:51.735Z,26.9
2017-11-29T03:55:51.793Z,26.9
2017-11-29T03:56:51.870Z,26.9
2017-11-29T03:57:51.915Z,26.9
2017-11-29T03:58:51.955Z,26.9
2017-11-29T03:59:49.063Z,26.9
2017-11-29T04:00:52.087Z,26.9
2017-11-29T04:01:49.186Z,26.9
2017-11-29T04:02:49.213Z,26.9
2017-11-29T04:03:49.286Z,26.9
2017-11-29T04:04:54.766Z,26.9
2017-11-29T04:05:52.300Z,26.9
2017-11-29T04:06:52.405Z,26.9
2017-11-29T04:07:49.432Z,26.9
2017-11-29T04:08:52.445Z,26.9
2017-11-29T04:09:52.472Z,26.9
2017-11-29T04:10:49.526Z,26.8
2017-11-29T04:11:52.498Z,26.9
2017-11-29T04:12:52.571Z,26.9
2017-11-29T04:13:52.635Z,26.9
2017-11-29T04:14:49.766Z,26.9
2017-11-29T04:15:52.734Z,26.9
2017-11-29T04:16:52.805Z,26.9
2017-11-29T04:17:52.842Z,26.8
2017-11-29T04:18:50.012Z,26.9
2017-11-29T04:19:52.937Z,26.9
2017-11-29T04:20:53.058Z,26.9
2017-11-29T04:21:50.145Z,26.9
2017-11-29T04:22:53.084Z,26.9
2017-11-29T04:23:50.252Z,26.8
2017-11-29T04:24:53.267Z,26.9
2017-11-29T04:25:50.408Z,26.9
2017-11-29T04:26:53.401Z,26.9
2017-11-29T04:27:50.510Z,26.8
2017-11-29T04:28:53.452Z,26.9
2017-11-29T04:29:50.609Z,26.9
2017-11-29T04:30:50.674Z,26.9
2017-11-29T04:31:50.767Z,26.9
2017-11-29T04:32:53.744Z,26.9
2017-11-29T04:33:50.924Z,26.9
2017-11-29T04:34:51.003Z,26.9
2017-11-29T04:35:51.064Z,26.9
2017-11-29T04:36:54.636Z,26.9
2017-11-29T04:37:51.295Z,26.9
2017-11-29T04:38:54.249Z,26.9
2017-11-29T04:39:51.357Z,26.9
2017-11-29T04:40:51.388Z,26.9
2017-11-29T04:41:51.438Z,26.9
2017-11-29T04:42:51.507Z,26.9
2017-11-29T04:43:54.523Z,26.9
2017-11-29T04:44:51.628Z,26.9
2017-11-29T04:45:54.618Z,26.9
2017-11-29T04:46:51.756Z,26.9
2017-11-29T04:47:51.864Z,26.9
2017-11-29T04:48:54.798Z,26.9
2017-11-29T04:49:51.931Z,26.9
2017-11-29T04:50:52.003Z,26.8
2017-11-29T04:51:52.085Z,26.9
2017-11-29T04:52:55.140Z,26.9
2017-11-29T04:53:55.089Z,26.8
2017-11-29T04:54:52.218Z,26.9
2017-11-29T04:55:52.341Z,26.9
2017-11-29T04:56:52.299Z,26.9
2017-11-29T04:57:55.331Z,26.9
2017-11-29T04:58:52.513Z,26.9
2017-11-29T04:59:55.478Z,26.9
2017-11-29T05:00:55.485Z,26.9
2017-11-29T05:01:52.646Z,26.9
2017-11-29T05:02:55.641Z,26.9
2017-11-29T05:03:55.566Z,26.9
2017-11-29T05:04:52.703Z,26.9
2017-11-29T05:05:55.700Z,26.9
2017-11-29T05:06:55.718Z,26.9
2017-11-29T05:07:55.716Z,26.9
2017-11-29T05:08:52.836Z,26.9
2017-11-29T05:09:55.789Z,26.9
2017-11-29T05:10:55.851Z,26.9
2017-11-29T05:11:55.879Z,26.9
2017-11-29T05:12:53.008Z,26.9
2017-11-29T05:13:56.012Z,26.9
2017-11-29T05:14:53.119Z,26.9
2017-11-29T05:15:56.127Z,26.9
2017-11-29T05:16:53.209Z,26.9
2017-11-29T05:17:53.256Z,26.9
2017-11-29T05:18:56.246Z,26.9
2017-11-29T05:19:56.293Z,26.9
2017-11-29T05:20:53.374Z,26.9
2017-11-29T05:21:53.463Z,26.9
2017-11-29T05:22:53.524Z,26.9
2017-11-29T05:23:56.553Z,26.9
2017-11-29T05:24:56.610Z,26.9
2017-11-29T05:25:56.642Z,26.8
2017-11-29T05:26:53.797Z,26.9
2017-11-29T05:27:56.818Z,26.9
2017-11-29T05:28:53.888Z,26.9
2017-11-29T05:29:56.880Z,26.9
2017-11-29T05:30:53.974Z,26.9
2017-11-29T05:31:56.986Z,26.9
2017-11-29T05:32:57.054Z,26.9
2017-11-29T05:33:54.199Z,26.9
2017-11-29T05:34:54.203Z,26.9
2017-11-29T05:35:54.209Z,26.9
2017-11-29T05:36:54.198Z,26.9
2017-11-29T05:37:57.243Z,26.9
2017-11-29T05:38:54.255Z,26.6
2017-11-29T05:39:57.248Z,26.9
2017-11-29T05:40:57.631Z,26.9
2017-11-29T05:41:57.282Z,26.9
2017-11-29T05:42:54.453Z,26.9
2017-11-29T05:43:57.402Z,26.9
2017-11-29T05:44:54.627Z,26.9
2017-11-29T05:45:57.771Z,27
2017-11-29T05:46:57.667Z,27
2017-11-29T05:47:57.739Z,27
2017-11-29T05:48:54.869Z,27
2017-11-29T05:49:57.877Z,27
2017-11-29T05:50:55.006Z,27
2017-11-29T05:51:58.018Z,27
2017-11-29T05:52:55.129Z,27
2017-11-29T05:53:55.151Z,27
2017-11-29T05:54:58.203Z,26.9
2017-11-29T05:55:55.246Z,27
2017-11-29T05:56:55.272Z,27
2017-11-29T05:57:58.254Z,27
2017-11-29T05:58:58.234Z,27
2017-11-29T05:59:55.420Z,27
2017-11-29T06:00:55.499Z,27
2017-11-29T06:01:58.475Z,27
2017-11-29T06:02:55.634Z,27
2017-11-29T06:03:55.734Z,27
2017-11-29T06:04:55.825Z,27
2017-11-29T06:05:55.932Z,27
2017-11-29T06:06:55.975Z,27
2017-11-29T06:07:55.962Z,27
2017-11-29T06:08:58.955Z,27
2017-11-29T06:09:58.971Z,27
2017-11-29T06:10:56.079Z,27
2017-11-29T06:11:58.966Z,27
2017-11-29T06:12:58.992Z,27
2017-11-29T06:13:59.044Z,27
2017-11-29T06:14:56.212Z,27
2017-11-29T06:15:59.122Z,27
2017-11-29T06:16:56.270Z,27
2017-11-29T06:17:56.382Z,27
2017-11-29T06:18:56.879Z,27
2017-11-29T06:19:59.383Z,27
2017-11-29T06:20:59.418Z,27
2017-11-29T06:21:59.402Z,27
2017-11-29T06:22:56.539Z,27
2017-11-29T06:23:56.625Z,27
2017-11-29T06:24:56.700Z,27
2017-11-29T06:25:56.782Z,27
2017-11-29T06:26:56.842Z,27
2017-11-29T06:27:56.890Z,27
2017-11-29T06:28:59.871Z,27
2017-11-29T06:29:59.969Z,27
2017-11-29T06:31:00.247Z,27
2017-11-29T06:31:59.993Z,27
2017-11-29T06:33:01.943Z,27
2017-11-29T06:33:59.937Z,27
2017-11-29T06:34:59.978Z,27
2017-11-29T06:35:59.938Z,27
2017-11-29T06:36:57.107Z,27
2017-11-29T06:37:57.112Z,27
2017-11-29T06:39:00.089Z,27
2017-11-29T06:40:00.132Z,27
2017-11-29T06:40:57.191Z,27
2017-11-29T06:41:59.795Z,27
2017-11-29T06:42:57.358Z,27
2017-11-29T06:43:57.334Z,27
2017-11-29T06:45:00.404Z,27
2017-11-29T06:46:00.598Z,27
2017-11-29T06:46:57.497Z,27
2017-11-29T06:48:00.594Z,27
2017-11-29T06:48:57.641Z,27
2017-11-29T06:49:57.702Z,27
2017-11-29T06:50:57.814Z,27
2017-11-29T06:52:00.798Z,27
2017-11-29T06:52:57.855Z,27
2017-11-29T06:54:00.876Z,27
2017-11-29T06:54:57.940Z,27
2017-11-29T06:55:58.120Z,27
2017-11-29T06:57:01.110Z,27
2017-11-29T06:58:01.089Z,27
2017-11-29T06:58:58.174Z,27
2017-11-29T06:59:58.218Z,27
2017-11-29T07:01:01.128Z,27
2017-11-29T07:01:58.358Z,27
2017-11-29T07:02:58.462Z,27
2017-11-29T07:03:58.281Z,27
2017-11-29T07:04:58.391Z,27
2017-11-29T07:05:58.476Z,27
2017-11-29T07:07:01.996Z,27
2017-11-29T07:07:58.640Z,27
2017-11-29T07:08:58.620Z,27
2017-11-29T07:09:58.609Z,27.1
2017-11-29T07:10:58.766Z,27.1
2017-11-29T07:12:01.686Z,27
2017-11-29T07:12:58.804Z,27.1
2017-11-29T07:13:58.886Z,27.1
2017-11-29T07:15:02.682Z,27.1
2017-11-29T07:16:01.866Z,27.1
2017-11-29T07:16:59.020Z,27.1
2017-11-29T07:18:01.988Z,27.1
2017-11-29T07:18:59.194Z,27.2
2017-11-29T07:20:02.241Z,27.2
2017-11-29T07:21:02.158Z,27.2
2017-11-29T07:21:59.355Z,27.2
2017-11-29T07:22:59.316Z,27.2
2017-11-29T07:23:59.380Z,27.2
2017-11-29T07:24:59.596Z,27.2
2017-11-29T07:26:02.627Z,27.3
2017-11-29T07:26:59.550Z,27.3
2017-11-29T07:28:02.538Z,27.3
2017-11-29T07:28:59.697Z,27.3
2017-11-29T07:29:59.674Z,27.3
2017-11-29T07:30:59.668Z,27.3
2017-11-29T07:31:59.762Z,27.4
2017-11-29T07:32:59.781Z,27.4
2017-11-29T07:33:59.773Z,27.4
2017-11-29T07:34:59.790Z,27.4
2017-11-29T07:36:02.884Z,27.4
2017-11-29T07:37:00.020Z,27.5
2017-11-29T07:38:03.073Z,27.5
2017-11-29T07:39:03.082Z,27.5
2017-11-29T07:40:00.267Z,27.5
2017-11-29T07:41:00.301Z,27.5
2017-11-29T07:42:00.365Z,27.5
2017-11-29T07:43:03.358Z,27.5
2017-11-29T07:44:00.339Z,27.5
2017-11-29T07:45:03.533Z,27.6
2017-11-29T07:46:03.698Z,27.6
2017-11-29T07:47:03.704Z,27.6
2017-11-29T07:48:03.606Z,27.6
2017-11-29T07:49:05.159Z,27.6
2017-11-29T07:50:03.770Z,27.6
2017-11-29T07:51:03.743Z,27.6
2017-11-29T07:52:00.953Z,27.7
2017-11-29T07:53:03.793Z,27.7
2017-11-29T07:54:04.007Z,27.7
2017-11-29T07:55:01.002Z,27.7
2017-11-29T07:56:01.117Z,27.7
2017-11-29T07:57:04.035Z,27.8
2017-11-29T07:58:01.759Z,27.8
2017-11-29T07:59:04.141Z,27.8
2017-11-29T08:00:01.263Z,27.8
2017-11-29T08:01:04.286Z,27.8
2017-11-29T08:02:01.635Z,27.8
2017-11-29T08:03:01.491Z,27.9
2017-11-29T08:04:04.456Z,27.9
2017-11-29T08:05:04.436Z,27.8
2017-11-29T08:06:05.150Z,27.9
2017-11-29T08:07:06.491Z,27.9
2017-11-29T08:08:01.612Z,27.9
2017-11-29T08:09:01.828Z,27.9
2017-11-29T08:10:04.691Z,27.9
2017-11-29T08:11:04.800Z,27.9
2017-11-29T08:12:04.710Z,28
2017-11-29T08:13:01.872Z,28
2017-11-29T08:14:04.872Z,28
2017-11-29T08:15:05.060Z,28
2017-11-29T08:16:05.025Z,28
2017-11-29T08:17:02.033Z,28
2017-11-29T08:18:05.201Z,28
2017-11-29T08:19:05.037Z,28
2017-11-29T08:20:02.380Z,28
2017-11-29T08:21:02.207Z,28.1
2017-11-29T08:22:05.143Z,28.1
2017-11-29T08:23:05.150Z,28.1
2017-11-29T08:24:05.376Z,28.1
2017-11-29T08:25:02.362Z,28.1
2017-11-29T08:26:02.502Z,28.1
2017-11-29T08:27:02.522Z,28.1
2017-11-29T08:28:02.590Z,28.1
2017-11-29T08:29:02.658Z,28.2
2017-11-29T08:30:02.791Z,28.2
2017-11-29T08:31:05.772Z,28.1
2017-11-29T08:32:03.050Z,28.2
2017-11-29T08:33:03.063Z,28.2
2017-11-29T08:34:02.918Z,28.2
2017-11-29T08:35:02.997Z,28.2
2017-11-29T08:36:03.021Z,28.2
2017-11-29T08:37:06.076Z,28.2
2017-11-29T08:38:03.239Z,28.3
2017-11-29T08:39:06.213Z,28.2
2017-11-29T08:40:03.360Z,28.2
2017-11-29T08:41:03.582Z,28.3
2017-11-29T08:42:03.773Z,28.3
2017-11-29T08:43:03.578Z,28.3
2017-11-29T08:44:06.565Z,28.3
2017-11-29T08:45:03.638Z,28.3
2017-11-29T08:46:03.732Z,28.3
2017-11-29T08:47:03.770Z,28.4
2017-11-29T08:48:06.213Z,28.4
2017-11-29T08:49:08.316Z,28.4
2017-11-29T08:50:03.781Z,28.4
2017-11-29T08:51:04.044Z,28.4
2017-11-29T08:52:03.908Z,28.4
2017-11-29T08:53:03.843Z,28.4
2017-11-29T08:54:07.387Z,28.5
2017-11-29T08:55:06.946Z,28.5
2017-11-29T08:56:06.963Z,28.5
2017-11-29T08:57:04.110Z,28.5
2017-11-29T08:58:07.066Z,28.6
2017-11-29T08:59:04.337Z,28.6
2017-11-29T09:00:04.407Z,28.7
2017-11-29T09:01:07.813Z,28.6
2017-11-29T09:02:07.344Z,28.8
2017-11-29T09:03:07.268Z,28.9
2017-11-29T09:04:07.513Z,28.9
2017-11-29T09:05:07.398Z,28.6
2017-11-29T09:06:04.790Z,28.1
2017-11-29T09:07:08.135Z,27.6
2017-11-29T09:08:08.110Z,27
2017-11-29T09:09:05.166Z,26.7
2017-11-29T09:10:05.070Z,26.3
2017-11-29T09:11:05.097Z,25.9
2017-11-29T09:12:05.090Z,25.6
2017-11-29T09:13:08.271Z,25.4
2017-11-29T09:14:08.030Z,25.3
2017-11-29T09:15:05.247Z,25.1
2017-11-29T09:16:07.915Z,25
2017-11-29T09:17:07.960Z,24.8
2017-11-29T09:18:05.041Z,24.6
2017-11-29T09:19:05.211Z,24.3
2017-11-29T09:20:05.338Z,24.2
2017-11-29T09:21:05.285Z,24
2017-11-29T09:22:08.372Z,23.8
2017-11-29T09:23:05.615Z,23.5
2017-11-29T09:24:08.537Z,23.3
2017-11-29T09:25:05.659Z,23.2
2017-11-29T09:26:08.822Z,23.2
2017-11-29T09:27:08.725Z,23.1
2017-11-29T09:28:09.022Z,23.1
2017-11-29T09:29:08.947Z,23
2017-11-29T09:30:05.873Z,22.9
2017-11-29T09:31:08.925Z,22.8
2017-11-29T09:32:08.939Z,22.8
2017-11-29T09:33:06.261Z,22.7
2017-11-29T09:34:06.192Z,22.7
2017-11-29T09:35:09.128Z,22.6
2017-11-29T09:36:09.382Z,22.6
2017-11-29T09:37:06.687Z,22.6
2017-11-29T09:38:06.461Z,22.6
2017-11-29T09:39:09.268Z,22.6
2017-11-29T09:40:06.551Z,22.5
2017-11-29T09:41:06.617Z,22.6
2017-11-29T09:42:06.528Z,22.6
2017-11-29T09:43:06.724Z,22.6
2017-11-29T09:44:09.592Z,22.5
2017-11-29T09:45:06.707Z,22.5
2017-11-29T09:46:10.017Z,22.4
2017-11-29T09:47:10.442Z,22.4
2017-11-29T09:48:06.885Z,22.3
2017-11-29T09:49:07.078Z,22.3
2017-11-29T09:50:07.165Z,22.2
2017-11-29T09:51:10.054Z,22.1
2017-11-29T09:52:10.023Z,22
2017-11-29T09:53:07.460Z,21.9
2017-11-29T09:54:07.241Z,21.8
2017-11-29T09:55:07.197Z,21.8
2017-11-29T09:56:07.209Z,21.7
2017-11-29T09:57:10.170Z,21.7
2017-11-29T09:58:10.170Z,21.6
2017-11-29T09:59:10.125Z,21.7
2017-11-29T10:00:07.303Z,21.6
2017-11-29T10:01:10.338Z,21.6
2017-11-29T10:02:07.489Z,21.4
2017-11-29T10:03:07.620Z,21.4
2017-11-29T10:04:07.724Z,21.3
2017-11-29T10:05:07.729Z,21.3
2017-11-29T10:06:07.697Z,21.3
2017-11-29T10:07:07.924Z,21.3
2017-11-29T10:08:10.770Z,21.2
2017-11-29T10:09:07.901Z,21.3
2017-11-29T10:10:07.908Z,21.3
2017-11-29T10:11:11.007Z,21.3
2017-11-29T10:12:08.214Z,21.2
2017-11-29T10:13:11.087Z,21.1
2017-11-29T10:14:11.208Z,21.1
2017-11-29T10:15:11.182Z,21
2017-11-29T10:16:11.254Z,21
2017-11-29T10:17:08.528Z,21
2017-11-29T10:18:08.624Z,21
2017-11-29T10:19:08.529Z,21
2017-11-29T10:20:08.951Z,20.9
2017-11-29T10:21:09.858Z,20.9
2017-11-29T10:22:11.769Z,21
2017-11-29T10:23:08.921Z,21.1
2017-11-29T10:24:11.765Z,21.3
2017-11-29T10:25:11.885Z,21.5
2017-11-29T10:26:11.915Z,21.9
2017-11-29T10:27:11.850Z,22.3
2017-11-29T10:28:11.944Z,22.6
2017-11-29T10:29:09.155Z,22.7
2017-11-29T10:30:11.989Z,22.8
2017-11-29T10:31:11.966Z,22.8
2017-11-29T10:32:09.075Z,22.8
2017-11-29T10:33:11.933Z,22.9
2017-11-29T10:34:09.156Z,22.9
2017-11-29T10:35:09.278Z,22.9
2017-11-29T10:36:09.321Z,22.8
2017-11-29T10:37:10.392Z,22.6
2017-11-29T10:38:09.900Z,22.5
2017-11-29T10:39:09.515Z,22.4
2017-11-29T10:40:09.350Z,22.1
2017-11-29T10:41:09.425Z,22
2017-11-29T10:42:12.548Z,21.8
2017-11-29T10:43:12.460Z,21.6
2017-11-29T10:44:09.571Z,21.5
2017-11-29T10:45:12.939Z,21.5
2017-11-29T10:46:09.837Z,21.5
2017-11-29T10:47:12.670Z,21.6
2017-11-29T10:48:12.231Z,21.6
2017-11-29T10:49:12.821Z,21.6
2017-11-29T10:50:12.763Z,21.6
2017-11-29T10:51:10.101Z,21.6
2017-11-29T10:52:12.995Z,21.6
2017-11-29T10:53:10.126Z,21.6
2017-11-29T10:54:10.234Z,21.6
2017-11-29T10:55:10.062Z,21.8
2017-11-29T10:56:10.056Z,22
2017-11-29T10:57:10.652Z,22.1
2017-11-29T10:58:13.596Z,22.1
2017-11-29T10:59:13.595Z,22
2017-11-29T11:00:10.270Z,21.9
2017-11-29T11:01:10.552Z,21.8
2017-11-29T11:02:13.317Z,22
2017-11-29T11:03:10.463Z,21.9
2017-11-29T11:04:10.607Z,21.8
2017-11-29T11:05:13.607Z,21.6
2017-11-29T11:06:10.663Z,21.6
2017-11-29T11:07:13.665Z,21.5
2017-11-29T11:08:13.681Z,21.4
2017-11-29T11:09:13.661Z,21.4
2017-11-29T11:10:13.808Z,21.2
2017-11-29T11:11:16.501Z,21.1
2017-11-29T11:12:13.828Z,21
2017-11-29T11:13:11.092Z,20.9
2017-11-29T11:14:13.956Z,20.5
2017-11-29T11:15:14.358Z,20.7
2017-11-29T11:16:14.096Z,20.9
2017-11-29T11:17:11.171Z,21
2017-11-29T11:18:14.161Z,21.3
2017-11-29T11:19:11.578Z,21.3
2017-11-29T11:20:11.729Z,21.3
2017-11-29T11:21:14.801Z,21.1
2017-11-29T11:22:11.783Z,21
2017-11-29T11:23:14.284Z,21.1
2017-11-29T11:24:14.348Z,21.3
2017-11-29T11:25:17.366Z,21.6
2017-11-29T11:26:14.472Z,22.2
2017-11-29T11:27:14.477Z,23.1
2017-11-29T11:28:11.558Z,24.2
2017-11-29T11:29:13.758Z,25.4
2017-11-29T11:30:16.479Z,26.4
2017-11-29T11:31:15.045Z,27.1
2017-11-29T11:32:11.906Z,27.8
2017-11-29T11:33:11.784Z,28.5
2017-11-29T11:34:12.027Z,29.2
2017-11-29T11:35:11.755Z,29.8
2017-11-29T11:36:14.764Z,30.3
2017-11-29T11:37:15.186Z,30.8
2017-11-29T11:38:11.945Z,31.2
2017-11-29T11:39:15.003Z,31.6
2017-11-29T11:40:12.447Z,32
2017-11-29T11:41:11.989Z,32.3
2017-11-29T11:42:12.397Z,32.6
2017-11-29T11:43:15.292Z,33
2017-11-29T11:44:15.293Z,33.2
2017-11-29T11:45:16.064Z,33.5
2017-11-29T11:46:12.772Z,33.7
2017-11-29T11:47:15.907Z,33.7
2017-11-29T11:48:15.967Z,33.7
2017-11-29T11:49:15.620Z,33.6
2017-11-29T11:50:17.419Z,33.1
2017-11-29T11:51:20.538Z,32.4
2017-11-29T11:52:15.484Z,31.7
2017-11-29T11:53:17.036Z,31.2
2017-11-29T11:54:12.642Z,30.7
2017-11-29T11:55:16.897Z,30.3
2017-11-29T11:56:15.715Z,29.9
2017-11-29T11:57:15.609Z,29.6
2017-11-29T11:58:17.744Z,29.3
2017-11-29T11:59:16.021Z,29.1
2017-11-29T12:00:13.063Z,28.9
2017-11-29T12:01:15.938Z,28.7
2017-11-29T12:02:13.016Z,28.6
2017-11-29T12:03:13.453Z,28.5
2017-11-29T12:04:13.356Z,28.3
2017-11-29T12:05:13.256Z,28.3
2017-11-29T12:06:15.845Z,28.2
2017-11-29T12:07:16.984Z,28.1
2017-11-29T12:08:17.610Z,28
2017-11-29T12:09:18.749Z,28
2017-11-29T12:10:16.523Z,28
2017-11-29T12:11:13.561Z,27.9
2017-11-29T12:12:13.573Z,27.9
2017-11-29T12:13:13.881Z,27.8
2017-11-29T12:14:13.607Z,27.8
2017-11-29T12:15:13.651Z,27.8
2017-11-29T12:16:13.815Z,27.8
2017-11-29T12:17:13.854Z,27.7
2017-11-29T12:18:16.840Z,27.8
2017-11-29T12:19:14.016Z,27.7
2017-11-29T12:20:17.022Z,27.7
2017-11-29T12:21:14.059Z,27.7
2017-11-29T12:22:17.866Z,27.7
2017-11-29T12:23:14.193Z,27.7
2017-11-29T12:24:14.530Z,27.7
2017-11-29T12:25:17.595Z,27.7
2017-11-29T12:26:14.536Z,27.7
2017-11-29T12:27:17.395Z,27.7
2017-11-29T12:28:17.303Z,27.7
2017-11-29T12:29:14.492Z,27.7
2017-11-29T12:30:18.597Z,27.7
2017-11-29T12:31:17.612Z,27.7
2017-11-29T12:32:14.699Z,27.7
2017-11-29T12:33:17.522Z,27.7
2017-11-29T12:34:14.665Z,27.7
2017-11-29T12:35:15.938Z,27.6
2017-11-29T12:36:15.197Z,27.7
2017-11-29T12:37:14.991Z,27.7
2017-11-29T12:38:14.968Z,27.7
2017-11-29T12:39:17.830Z,27.8
2017-11-29T12:40:14.972Z,27.8
2017-11-29T12:41:18.005Z,27.8
2017-11-29T12:42:15.092Z,27.8
2017-11-29T12:43:18.675Z,27.8
2017-11-29T12:44:15.179Z,27.8
2017-11-29T12:45:18.288Z,27.9
2017-11-29T12:46:18.389Z,27.9
2017-11-29T12:47:18.561Z,27.9
2017-11-29T12:48:15.586Z,27.9
2017-11-29T12:49:18.518Z,27.9
2017-11-29T12:50:15.610Z,27.9
2017-11-29T12:51:16.307Z,28
2017-11-29T12:52:15.628Z,28
2017-11-29T12:53:18.662Z,28
2017-11-29T12:54:15.765Z,28
2017-11-29T12:55:15.783Z,28
2017-11-29T12:56:15.800Z,28
2017-11-29T12:57:16.181Z,28
2017-11-29T12:58:15.902Z,28.1
2017-11-29T12:59:19.090Z,28.1
2017-11-29T13:00:16.050Z,28.1
2017-11-29T13:01:19.074Z,28.1
2017-11-29T13:02:16.392Z,28.1
2017-11-29T13:03:19.177Z,28.2
2017-11-29T13:04:16.964Z,28.1
2017-11-29T13:05:16.318Z,28.1
2017-11-29T13:06:19.369Z,28.2
2017-11-29T13:07:19.582Z,28.2
2017-11-29T13:08:20.056Z,28.2
2017-11-29T13:09:16.484Z,28.2
2017-11-29T13:10:19.547Z,28.3
2017-11-29T13:11:19.658Z,28.3
2017-11-29T13:12:16.738Z,28.3
2017-11-29T13:13:19.688Z,28.3
2017-11-29T13:14:17.414Z,28.2
2017-11-29T13:15:16.930Z,28.2
2017-11-29T13:16:17.251Z,28.3
2017-11-29T13:17:16.958Z,28.3
2017-11-29T13:18:17.039Z,28.3
2017-11-29T13:19:19.572Z,28.3
2017-11-29T13:20:20.152Z,28.3
2017-11-29T13:21:17.546Z,28.3
2017-11-29T13:22:20.403Z,28.4
2017-11-29T13:23:20.303Z,28.4
2017-11-29T13:24:20.407Z,28.5
2017-11-29T13:25:17.514Z,28.5
2017-11-29T13:26:20.589Z,28.5
2017-11-29T13:27:20.211Z,28.5